sensor_id;sensor_type;location;lat;lon;timestamp;P1;durP1;ratioP1;P2;durP2;ratioP2
27213;SDS011;14723;55.814;37.460;2023-12-20T00:01:49;3.15;;;1.35;;
27213;SDS011;14723;55.814;37.460;2023-12-20T00:04:55;1.88;;;1.25;;
27213;SDS011;14723;55.814;37.460;2023-12-20T00:08:00;1.40;;;1.00;;
27213;SDS011;14723;55.814;37.460;2023-12-20T00:11:07;2.97;;;1.30;;
27213;SDS011;14723;55.814;37.460;2023-12-20T00:14:15;3.15;;;1.30;;
27213;SDS011;14723;55.814;37.460;2023-12-20T00:17:20;1.88;;;1.17;;
27213;SDS011;14723;55.814;37.460;2023-12-20T00:20:25;2.10;;;1.38;;
27213;SDS011;14723;55.814;37.460;2023-12-20T00:23:30;2.60;;;1.33;;
27213;SDS011;14723;55.814;37.460;2023-12-20T00:26:36;1.83;;;1.27;;
27213;SDS011;14723;55.814;37.460;2023-12-20T00:29:44;1.73;;;1.23;;
27213;SDS011;14723;55.814;37.460;2023-12-20T00:32:51;3.65;;;1.55;;
27213;SDS011;14723;55.814;37.460;2023-12-20T00:35:57;2.22;;;1.25;;
27213;SDS011;14723;55.814;37.460;2023-12-20T00:39:02;1.67;;;1.30;;
27213;SDS011;14723;55.814;37.460;2023-12-20T00:42:08;2.20;;;1.50;;
27213;SDS011;14723;55.814;37.460;2023-12-20T00:45:16;3.35;;;1.60;;
27213;SDS011;14723;55.814;37.460;2023-12-20T00:48:21;2.58;;;1.55;;
27213;SDS011;14723;55.814;37.460;2023-12-20T00:51:29;2.88;;;1.73;;
27213;SDS011;14723;55.814;37.460;2023-12-20T00:54:34;1.88;;;1.30;;
27213;SDS011;14723;55.814;37.460;2023-12-20T00:57:39;1.40;;;1.30;;
27213;SDS011;14723;55.814;37.460;2023-12-20T01:00:47;1.88;;;1.63;;
27213;SDS011;14723;55.814;37.460;2023-12-20T01:03:53;3.95;;;1.88;;
27213;SDS011;14723;55.814;37.460;2023-12-20T01:06:58;2.58;;;1.90;;
27213;SDS011;14723;55.814;37.460;2023-12-20T01:10:04;2.83;;;1.63;;
27213;SDS011;14723;55.814;37.460;2023-12-20T01:13:09;3.45;;;1.85;;
27213;SDS011;14723;55.814;37.460;2023-12-20T01:16:17;3.95;;;2.13;;
27213;SDS011;14723;55.814;37.460;2023-12-20T01:22:29;3.78;;;2.30;;
27213;SDS011;14723;55.814;37.460;2023-12-20T01:25:34;8.35;;;2.50;;
27213;SDS011;14723;55.814;37.460;2023-12-20T01:28:39;5.00;;;2.47;;
27213;SDS011;14723;55.814;37.460;2023-12-20T01:31:47;4.55;;;2.65;;
27213;SDS011;14723;55.814;37.460;2023-12-20T01:34:53;6.72;;;2.30;;
27213;SDS011;14723;55.814;37.460;2023-12-20T01:38:04;4.20;;;2.20;;
27213;SDS011;14723;55.814;37.460;2023-12-20T01:41:09;3.05;;;2.03;;
27213;SDS011;14723;55.814;37.460;2023-12-20T01:44:14;4.07;;;2.13;;
27213;SDS011;14723;55.814;37.460;2023-12-20T01:47:22;4.68;;;2.30;;
27213;SDS011;14723;55.814;37.460;2023-12-20T01:50:29;4.18;;;2.10;;
27213;SDS011;14723;55.814;37.460;2023-12-20T01:53:34;2.97;;;1.70;;
27213;SDS011;14723;55.814;37.460;2023-12-20T01:56:40;3.20;;;1.67;;
27213;SDS011;14723;55.814;37.460;2023-12-20T01:59:45;3.50;;;1.80;;
27213;SDS011;14723;55.814;37.460;2023-12-20T02:02:53;3.33;;;2.08;;
27213;SDS011;14723;55.814;37.460;2023-12-20T02:06:03;3.13;;;1.58;;
27213;SDS011;14723;55.814;37.460;2023-12-20T02:09:08;4.22;;;1.65;;
27213;SDS011;14723;55.814;37.460;2023-12-20T02:12:13;3.28;;;1.38;;
27213;SDS011;14723;55.814;37.460;2023-12-20T02:15:18;2.53;;;1.60;;
27213;SDS011;14723;55.814;37.460;2023-12-20T02:18:26;2.05;;;1.20;;
27213;SDS011;14723;55.814;37.460;2023-12-20T02:21:34;1.88;;;1.10;;
27213;SDS011;14723;55.814;37.460;2023-12-20T02:24:39;5.55;;;1.52;;
27213;SDS011;14723;55.814;37.460;2023-12-20T02:27:45;3.42;;;1.00;;
27213;SDS011;14723;55.814;37.460;2023-12-20T02:30:50;3.50;;;1.02;;
27213;SDS011;14723;55.814;37.460;2023-12-20T02:33:56;5.18;;;1.05;;
27213;SDS011;14723;55.814;37.460;2023-12-20T02:37:04;2.58;;;1.00;;
27213;SDS011;14723;55.814;37.460;2023-12-20T02:40:09;4.90;;;1.20;;
27213;SDS011;14723;55.814;37.460;2023-12-20T02:43:15;2.72;;;0.90;;
27213;SDS011;14723;55.814;37.460;2023-12-20T02:46:20;4.90;;;0.75;;
27213;SDS011;14723;55.814;37.460;2023-12-20T02:49:26;1.13;;;0.95;;
27213;SDS011;14723;55.814;37.460;2023-12-20T02:52:34;3.67;;;0.85;;
27213;SDS011;14723;55.814;37.460;2023-12-20T02:55:39;1.77;;;0.90;;
27213;SDS011;14723;55.814;37.460;2023-12-20T02:58:44;1.70;;;1.10;;
27213;SDS011;14723;55.814;37.460;2023-12-20T03:01:49;1.05;;;0.80;;
27213;SDS011;14723;55.814;37.460;2023-12-20T03:04:55;1.23;;;0.80;;
27213;SDS011;14723;55.814;37.460;2023-12-20T03:08:06;2.25;;;1.08;;
27213;SDS011;14723;55.814;37.460;2023-12-20T03:11:12;2.55;;;1.13;;
27213;SDS011;14723;55.814;37.460;2023-12-20T03:14:17;2.30;;;1.10;;
27213;SDS011;14723;55.814;37.460;2023-12-20T03:17:23;1.90;;;1.10;;
27213;SDS011;14723;55.814;37.460;2023-12-20T03:20:28;2.97;;;1.33;;
27213;SDS011;14723;55.814;37.460;2023-12-20T03:23:37;3.50;;;1.08;;
27213;SDS011;14723;55.814;37.460;2023-12-20T03:26:43;2.45;;;1.30;;
27213;SDS011;14723;55.814;37.460;2023-12-20T03:29:48;1.55;;;1.08;;
27213;SDS011;14723;55.814;37.460;2023-12-20T03:32:53;3.22;;;1.08;;
27213;SDS011;14723;55.814;37.460;2023-12-20T03:35:58;4.00;;;1.10;;
27213;SDS011;14723;55.814;37.460;2023-12-20T03:39:06;5.95;;;1.23;;
27213;SDS011;14723;55.814;37.460;2023-12-20T03:42:12;4.70;;;1.23;;
27213;SDS011;14723;55.814;37.460;2023-12-20T03:45:17;3.28;;;1.20;;
27213;SDS011;14723;55.814;37.460;2023-12-20T03:48:22;2.75;;;1.35;;
27213;SDS011;14723;55.814;37.460;2023-12-20T03:51:28;1.90;;;1.60;;
27213;SDS011;14723;55.814;37.460;2023-12-20T03:54:35;3.70;;;1.95;;
27213;SDS011;14723;55.814;37.460;2023-12-20T03:57:41;2.70;;;1.85;;
27213;SDS011;14723;55.814;37.460;2023-12-20T04:00:46;2.88;;;1.85;;
27213;SDS011;14723;55.814;37.460;2023-12-20T04:03:52;4.00;;;2.10;;
27213;SDS011;14723;55.814;37.460;2023-12-20T04:06:57;3.30;;;1.88;;
27213;SDS011;14723;55.814;37.460;2023-12-20T04:10:05;4.22;;;2.10;;
27213;SDS011;14723;55.814;37.460;2023-12-20T04:13:11;3.40;;;2.05;;
27213;SDS011;14723;55.814;37.460;2023-12-20T04:16:16;5.90;;;2.63;;
27213;SDS011;14723;55.814;37.460;2023-12-20T04:19:21;3.10;;;2.38;;
27213;SDS011;14723;55.814;37.460;2023-12-20T04:22:26;4.10;;;2.90;;
27213;SDS011;14723;55.814;37.460;2023-12-20T04:25:34;5.28;;;3.17;;
27213;SDS011;14723;55.814;37.460;2023-12-20T04:28:40;5.20;;;2.70;;
27213;SDS011;14723;55.814;37.460;2023-12-20T04:31:45;4.00;;;2.70;;
27213;SDS011;14723;55.814;37.460;2023-12-20T04:34:52;5.13;;;2.75;;
27213;SDS011;14723;55.814;37.460;2023-12-20T04:37:57;6.32;;;3.00;;
27213;SDS011;14723;55.814;37.460;2023-12-20T04:41:05;3.83;;;2.03;;
27213;SDS011;14723;55.814;37.460;2023-12-20T04:44:10;5.53;;;2.10;;
27213;SDS011;14723;55.814;37.460;2023-12-20T04:47:15;4.13;;;2.00;;
27213;SDS011;14723;55.814;37.460;2023-12-20T04:50:20;3.28;;;2.17;;
27213;SDS011;14723;55.814;37.460;2023-12-20T04:53:26;4.05;;;2.70;;
27213;SDS011;14723;55.814;37.460;2023-12-20T04:56:34;5.20;;;2.70;;
27213;SDS011;14723;55.814;37.460;2023-12-20T04:59:39;6.47;;;2.90;;
27213;SDS011;14723;55.814;37.460;2023-12-20T05:02:44;5.65;;;2.78;;
27213;SDS011;14723;55.814;37.460;2023-12-20T05:05:49;4.55;;;2.42;;
27213;SDS011;14723;55.814;37.460;2023-12-20T05:08:55;6.30;;;3.50;;
27213;SDS011;14723;55.814;37.460;2023-12-20T05:12:02;5.38;;;2.95;;
27213;SDS011;14723;55.814;37.460;2023-12-20T05:15:08;5.05;;;2.63;;
27213;SDS011;14723;55.814;37.460;2023-12-20T05:18:13;4.68;;;2.72;;
27213;SDS011;14723;55.814;37.460;2023-12-20T05:21:18;3.72;;;2.50;;
27213;SDS011;14723;55.814;37.460;2023-12-20T05:24:24;4.88;;;2.95;;
27213;SDS011;14723;55.814;37.460;2023-12-20T05:27:31;5.82;;;2.80;;
27213;SDS011;14723;55.814;37.460;2023-12-20T05:30:36;5.63;;;3.63;;
27213;SDS011;14723;55.814;37.460;2023-12-20T05:33:42;9.73;;;3.63;;
27213;SDS011;14723;55.814;37.460;2023-12-20T05:36:48;7.72;;;3.88;;
27213;SDS011;14723;55.814;37.460;2023-12-20T05:39:53;8.05;;;3.28;;
27213;SDS011;14723;55.814;37.460;2023-12-20T05:43:01;5.00;;;2.83;;
27213;SDS011;14723;55.814;37.460;2023-12-20T05:46:06;5.68;;;2.60;;
27213;SDS011;14723;55.814;37.460;2023-12-20T05:49:12;7.35;;;2.92;;
27213;SDS011;14723;55.814;37.460;2023-12-20T05:52:17;6.03;;;3.15;;
27213;SDS011;14723;55.814;37.460;2023-12-20T05:55:22;3.35;;;2.45;;
27213;SDS011;14723;55.814;37.460;2023-12-20T05:58:30;5.25;;;2.10;;
27213;SDS011;14723;55.814;37.460;2023-12-20T06:01:35;5.57;;;2.67;;
27213;SDS011;14723;55.814;37.460;2023-12-20T06:04:41;4.57;;;2.50;;
27213;SDS011;14723;55.814;37.460;2023-12-20T06:07:47;5.47;;;2.60;;
27213;SDS011;14723;55.814;37.460;2023-12-20T06:10:53;8.45;;;3.35;;
27213;SDS011;14723;55.814;37.460;2023-12-20T06:14:00;6.72;;;3.08;;
27213;SDS011;14723;55.814;37.460;2023-12-20T06:17:06;7.32;;;2.90;;
27213;SDS011;14723;55.814;37.460;2023-12-20T06:20:11;6.80;;;3.08;;
27213;SDS011;14723;55.814;37.460;2023-12-20T06:23:16;5.03;;;2.75;;
27213;SDS011;14723;55.814;37.460;2023-12-20T06:26:21;6.78;;;3.17;;
27213;SDS011;14723;55.814;37.460;2023-12-20T06:29:29;4.78;;;3.40;;
27213;SDS011;14723;55.814;37.460;2023-12-20T06:32:36;7.82;;;3.58;;
27213;SDS011;14723;55.814;37.460;2023-12-20T06:35:44;5.03;;;3.05;;
27213;SDS011;14723;55.814;37.460;2023-12-20T06:38:50;6.95;;;3.35;;
27213;SDS011;14723;55.814;37.460;2023-12-20T06:41:55;5.03;;;2.95;;
27213;SDS011;14723;55.814;37.460;2023-12-20T06:45:03;4.05;;;2.90;;
27213;SDS011;14723;55.814;37.460;2023-12-20T06:51:16;6.40;;;2.63;;
27213;SDS011;14723;55.814;37.460;2023-12-20T06:54:22;5.90;;;2.70;;
27213;SDS011;14723;55.814;37.460;2023-12-20T06:57:27;6.15;;;2.90;;
27213;SDS011;14723;55.814;37.460;2023-12-20T07:00:35;4.35;;;2.60;;
27213;SDS011;14723;55.814;37.460;2023-12-20T07:03:40;4.60;;;2.47;;
27213;SDS011;14723;55.814;37.460;2023-12-20T07:06:45;4.10;;;2.58;;
27213;SDS011;14723;55.814;37.460;2023-12-20T07:09:53;7.63;;;3.03;;
27213;SDS011;14723;55.814;37.460;2023-12-20T07:12:59;4.25;;;2.83;;
27213;SDS011;14723;55.814;37.460;2023-12-20T07:16:06;5.90;;;3.03;;
27213;SDS011;14723;55.814;37.460;2023-12-20T07:19:12;9.32;;;2.85;;
27213;SDS011;14723;55.814;37.460;2023-12-20T07:22:17;4.82;;;2.33;;
27213;SDS011;14723;55.814;37.460;2023-12-20T07:25:22;5.30;;;2.92;;
27213;SDS011;14723;55.814;37.460;2023-12-20T07:28:28;4.50;;;2.38;;
27213;SDS011;14723;55.814;37.460;2023-12-20T07:31:36;4.07;;;2.63;;
27213;SDS011;14723;55.814;37.460;2023-12-20T07:34:41;9.15;;;3.08;;
27213;SDS011;14723;55.814;37.460;2023-12-20T07:37:46;4.97;;;2.30;;
27213;SDS011;14723;55.814;37.460;2023-12-20T07:40:51;3.17;;;2.30;;
27213;SDS011;14723;55.814;37.460;2023-12-20T07:43:57;3.53;;;2.42;;
27213;SDS011;14723;55.814;37.460;2023-12-20T07:47:04;5.32;;;2.00;;
27213;SDS011;14723;55.814;37.460;2023-12-20T07:50:10;4.10;;;2.58;;
27213;SDS011;14723;55.814;37.460;2023-12-20T07:53:15;5.47;;;2.58;;
27213;SDS011;14723;55.814;37.460;2023-12-20T07:56:20;3.60;;;2.22;;
27213;SDS011;14723;55.814;37.460;2023-12-20T07:59:26;4.53;;;2.20;;
27213;SDS011;14723;55.814;37.460;2023-12-20T08:02:36;4.00;;;2.25;;
27213;SDS011;14723;55.814;37.460;2023-12-20T08:05:41;6.40;;;2.13;;
27213;SDS011;14723;55.814;37.460;2023-12-20T08:08:47;3.33;;;1.90;;
27213;SDS011;14723;55.814;37.460;2023-12-20T08:12:03;5.03;;;2.00;;
27213;SDS011;14723;55.814;37.460;2023-12-20T08:15:09;3.33;;;1.92;;
27213;SDS011;14723;55.814;37.460;2023-12-20T08:18:17;10.48;;;3.97;;
27213;SDS011;14723;55.814;37.460;2023-12-20T08:21:22;8.45;;;1.88;;
27213;SDS011;14723;55.814;37.460;2023-12-20T08:24:27;4.07;;;2.05;;
27213;SDS011;14723;55.814;37.460;2023-12-20T08:27:32;3.35;;;1.85;;
27213;SDS011;14723;55.814;37.460;2023-12-20T08:30:38;3.00;;;1.60;;
27213;SDS011;14723;55.814;37.460;2023-12-20T08:33:46;4.15;;;1.83;;
27213;SDS011;14723;55.814;37.460;2023-12-20T08:39:56;4.38;;;2.00;;
27213;SDS011;14723;55.814;37.460;2023-12-20T08:43:02;6.70;;;2.53;;
27213;SDS011;14723;55.814;37.460;2023-12-20T08:46:07;6.80;;;2.00;;
27213;SDS011;14723;55.814;37.460;2023-12-20T08:49:16;8.95;;;2.53;;
27213;SDS011;14723;55.814;37.460;2023-12-20T08:52:22;3.05;;;1.60;;
27213;SDS011;14723;55.814;37.460;2023-12-20T08:55:29;3.10;;;2.22;;
27213;SDS011;14723;55.814;37.460;2023-12-20T08:58:34;4.50;;;2.38;;
27213;SDS011;14723;55.814;37.460;2023-12-20T09:01:39;3.83;;;2.35;;
27213;SDS011;14723;55.814;37.460;2023-12-20T09:04:47;3.50;;;2.35;;
27213;SDS011;14723;55.814;37.460;2023-12-20T09:07:53;5.10;;;2.58;;
27213;SDS011;14723;55.814;37.460;2023-12-20T09:10:58;4.47;;;2.50;;
27213;SDS011;14723;55.814;37.460;2023-12-20T09:14:04;5.95;;;2.20;;
27213;SDS011;14723;55.814;37.460;2023-12-20T09:17:09;5.13;;;2.40;;
27213;SDS011;14723;55.814;37.460;2023-12-20T09:20:17;4.28;;;2.40;;
27213;SDS011;14723;55.814;37.460;2023-12-20T09:23:28;5.30;;;2.95;;
27213;SDS011;14723;55.814;37.460;2023-12-20T09:26:34;4.60;;;2.58;;
27213;SDS011;14723;55.814;37.460;2023-12-20T09:29:39;3.25;;;1.90;;
27213;SDS011;14723;55.814;37.460;2023-12-20T09:32:45;4.20;;;2.00;;
27213;SDS011;14723;55.814;37.460;2023-12-20T09:35:53;3.35;;;2.45;;
27213;SDS011;14723;55.814;37.460;2023-12-20T09:38:58;3.45;;;2.05;;
27213;SDS011;14723;55.814;37.460;2023-12-20T09:42:04;4.45;;;2.00;;
27213;SDS011;14723;55.814;37.460;2023-12-20T09:45:09;3.72;;;2.03;;
27213;SDS011;14723;55.814;37.460;2023-12-20T09:48:15;3.03;;;2.20;;
27213;SDS011;14723;55.814;37.460;2023-12-20T09:51:25;3.45;;;2.22;;
27213;SDS011;14723;55.814;37.460;2023-12-20T09:54:31;3.08;;;2.05;;
27213;SDS011;14723;55.814;37.460;2023-12-20T09:57:36;3.97;;;2.00;;
27213;SDS011;14723;55.814;37.460;2023-12-20T10:00:41;3.10;;;2.00;;
27213;SDS011;14723;55.814;37.460;2023-12-20T10:03:47;4.72;;;2.20;;
27213;SDS011;14723;55.814;37.460;2023-12-20T10:06:55;2.75;;;1.80;;
27213;SDS011;14723;55.814;37.460;2023-12-20T10:10:04;2.58;;;2.10;;
27213;SDS011;14723;55.814;37.460;2023-12-20T10:13:11;2.35;;;1.75;;
27213;SDS011;14723;55.814;37.460;2023-12-20T10:16:17;2.50;;;1.98;;
27213;SDS011;14723;55.814;37.460;2023-12-20T10:19:22;2.50;;;1.90;;
27213;SDS011;14723;55.814;37.460;2023-12-20T10:22:30;4.00;;;2.10;;
27213;SDS011;14723;55.814;37.460;2023-12-20T10:25:37;5.10;;;2.67;;
27213;SDS011;14723;55.814;37.460;2023-12-20T10:28:42;4.03;;;2.72;;
27213;SDS011;14723;55.814;37.460;2023-12-20T10:31:47;2.40;;;1.67;;
27213;SDS011;14723;55.814;37.460;2023-12-20T10:34:53;2.95;;;1.63;;
27213;SDS011;14723;55.814;37.460;2023-12-20T10:38:02;4.05;;;1.75;;
27213;SDS011;14723;55.814;37.460;2023-12-20T10:41:08;2.60;;;1.83;;
27213;SDS011;14723;55.814;37.460;2023-12-20T10:44:14;3.03;;;1.77;;
27213;SDS011;14723;55.814;37.460;2023-12-20T10:47:19;1.98;;;1.67;;
27213;SDS011;14723;55.814;37.460;2023-12-20T10:50:24;2.25;;;1.83;;
27213;SDS011;14723;55.814;37.460;2023-12-20T10:53:34;3.45;;;1.95;;
27213;SDS011;14723;55.814;37.460;2023-12-20T10:56:42;3.65;;;1.80;;
27213;SDS011;14723;55.814;37.460;2023-12-20T10:59:47;2.22;;;1.63;;
27213;SDS011;14723;55.814;37.460;2023-12-20T11:02:53;2.72;;;1.70;;
27213;SDS011;14723;55.814;37.460;2023-12-20T11:06:01;4.18;;;1.90;;
27213;SDS011;14723;55.814;37.460;2023-12-20T11:09:12;2.33;;;1.60;;
27213;SDS011;14723;55.814;37.460;2023-12-20T11:12:20;2.95;;;1.48;;
27213;SDS011;14723;55.814;37.460;2023-12-20T11:15:27;6.22;;;1.52;;
27213;SDS011;14723;55.814;37.460;2023-12-20T11:18:33;3.10;;;1.45;;
27213;SDS011;14723;55.814;37.460;2023-12-20T11:21:38;2.38;;;1.30;;
27213;SDS011;14723;55.814;37.460;2023-12-20T11:24:47;2.28;;;1.23;;
27213;SDS011;14723;55.814;37.460;2023-12-20T11:28:08;1.98;;;0.90;;
27213;SDS011;14723;55.814;37.460;2023-12-20T11:31:14;1.45;;;1.00;;
27213;SDS011;14723;55.814;37.460;2023-12-20T11:34:21;1.65;;;1.30;;
27213;SDS011;14723;55.814;37.460;2023-12-20T11:37:29;9.02;;;3.20;;
27213;SDS011;14723;55.814;37.460;2023-12-20T11:40:38;2.92;;;1.30;;
27213;SDS011;14723;55.814;37.460;2023-12-20T11:43:46;2.10;;;1.35;;
27213;SDS011;14723;55.814;37.460;2023-12-20T11:46:51;3.35;;;1.13;;
27213;SDS011;14723;55.814;37.460;2023-12-20T11:49:56;2.60;;;1.20;;
27213;SDS011;14723;55.814;37.460;2023-12-20T11:53:03;1.42;;;1.33;;
27213;SDS011;14723;55.814;37.460;2023-12-20T11:56:11;2.05;;;1.17;;
27213;SDS011;14723;55.814;37.460;2023-12-20T11:59:16;3.50;;;1.23;;
27213;SDS011;14723;55.814;37.460;2023-12-20T12:05:30;2.35;;;1.30;;
27213;SDS011;14723;55.814;37.460;2023-12-20T12:08:36;1.50;;;1.05;;
27213;SDS011;14723;55.814;37.460;2023-12-20T12:11:44;1.65;;;1.00;;
27213;SDS011;14723;55.814;37.460;2023-12-20T12:14:50;2.17;;;1.40;;
27213;SDS011;14723;55.814;37.460;2023-12-20T12:17:55;3.28;;;1.33;;
27213;SDS011;14723;55.814;37.460;2023-12-20T12:21:01;1.92;;;1.40;;
27213;SDS011;14723;55.814;37.460;2023-12-20T12:24:19;1.50;;;1.20;;
27213;SDS011;14723;55.814;37.460;2023-12-20T12:27:28;2.58;;;1.40;;
27213;SDS011;14723;55.814;37.460;2023-12-20T12:30:33;1.95;;;1.30;;
27213;SDS011;14723;55.814;37.460;2023-12-20T12:33:47;1.67;;;1.30;;
27213;SDS011;14723;55.814;37.460;2023-12-20T12:36:52;2.90;;;1.58;;
27213;SDS011;14723;55.814;37.460;2023-12-20T12:39:57;2.40;;;1.60;;
27213;SDS011;14723;55.814;37.460;2023-12-20T12:43:06;1.83;;;1.33;;
27213;SDS011;14723;55.814;37.460;2023-12-20T12:46:12;2.58;;;1.77;;
27213;SDS011;14723;55.814;37.460;2023-12-20T12:49:17;3.33;;;2.10;;
27213;SDS011;14723;55.814;37.460;2023-12-20T12:52:23;3.00;;;1.70;;
27213;SDS011;14723;55.814;37.460;2023-12-20T12:55:29;2.85;;;1.80;;
27213;SDS011;14723;55.814;37.460;2023-12-20T12:58:36;4.78;;;1.70;;
27213;SDS011;14723;55.814;37.460;2023-12-20T13:01:42;4.15;;;1.63;;
27213;SDS011;14723;55.814;37.460;2023-12-20T13:04:47;3.90;;;1.90;;
27213;SDS011;14723;55.814;37.460;2023-12-20T13:07:53;2.75;;;1.75;;
27213;SDS011;14723;55.814;37.460;2023-12-20T13:10:58;2.25;;;1.65;;
27213;SDS011;14723;55.814;37.460;2023-12-20T13:14:09;1.45;;;1.27;;
27213;SDS011;14723;55.814;37.460;2023-12-20T13:17:17;2.40;;;1.13;;
27213;SDS011;14723;55.814;37.460;2023-12-20T13:20:23;2.25;;;1.30;;
27213;SDS011;14723;55.814;37.460;2023-12-20T13:23:28;4.57;;;1.50;;
27213;SDS011;14723;55.814;37.460;2023-12-20T13:26:33;5.50;;;1.77;;
27213;SDS011;14723;55.814;37.460;2023-12-20T13:29:41;3.65;;;1.50;;
27213;SDS011;14723;55.814;37.460;2023-12-20T13:32:46;4.97;;;1.40;;
27213;SDS011;14723;55.814;37.460;2023-12-20T13:35:51;2.22;;;1.25;;
27213;SDS011;14723;55.814;37.460;2023-12-20T13:38:58;2.65;;;1.50;;
27213;SDS011;14723;55.814;37.460;2023-12-20T13:42:05;3.58;;;1.80;;
27213;SDS011;14723;55.814;37.460;2023-12-20T13:45:13;3.85;;;2.22;;
27213;SDS011;14723;55.814;37.460;2023-12-20T13:48:18;3.28;;;1.52;;
27213;SDS011;14723;55.814;37.460;2023-12-20T13:51:23;2.30;;;1.42;;
27213;SDS011;14723;55.814;37.460;2023-12-20T13:54:28;1.88;;;1.40;;
27213;SDS011;14723;55.814;37.460;2023-12-20T13:57:33;2.55;;;1.45;;
27213;SDS011;14723;55.814;37.460;2023-12-20T14:00:58;4.18;;;2.08;;
27213;SDS011;14723;55.814;37.460;2023-12-20T14:04:04;2.85;;;1.70;;
27213;SDS011;14723;55.814;37.460;2023-12-20T14:07:09;3.55;;;2.15;;
27213;SDS011;14723;55.814;37.460;2023-12-20T14:10:15;4.13;;;2.22;;
27213;SDS011;14723;55.814;37.460;2023-12-20T14:13:20;4.43;;;2.40;;
27213;SDS011;14723;55.814;37.460;2023-12-20T14:16:28;3.47;;;2.20;;
27213;SDS011;14723;55.814;37.460;2023-12-20T14:19:33;4.07;;;1.83;;
27213;SDS011;14723;55.814;37.460;2023-12-20T14:22:39;4.82;;;2.90;;
27213;SDS011;14723;55.814;37.460;2023-12-20T14:25:46;4.70;;;2.50;;
27213;SDS011;14723;55.814;37.460;2023-12-20T14:28:53;3.78;;;2.20;;
27213;SDS011;14723;55.814;37.460;2023-12-20T14:32:01;3.80;;;2.13;;
27213;SDS011;14723;55.814;37.460;2023-12-20T14:35:08;4.78;;;2.30;;
27213;SDS011;14723;55.814;37.460;2023-12-20T14:38:14;6.32;;;3.00;;
27213;SDS011;14723;55.814;37.460;2023-12-20T14:41:19;3.88;;;2.00;;
27213;SDS011;14723;55.814;37.460;2023-12-20T14:44:26;4.57;;;2.50;;
27213;SDS011;14723;55.814;37.460;2023-12-20T14:47:34;5.03;;;2.28;;
27213;SDS011;14723;55.814;37.460;2023-12-20T14:50:40;3.85;;;2.10;;
27213;SDS011;14723;55.814;37.460;2023-12-20T14:53:46;9.70;;;2.67;;
27213;SDS011;14723;55.814;37.460;2023-12-20T14:56:51;4.25;;;2.85;;
27213;SDS011;14723;55.814;37.460;2023-12-20T14:59:56;4.15;;;2.35;;
27213;SDS011;14723;55.814;37.460;2023-12-20T15:03:04;4.05;;;2.33;;
27213;SDS011;14723;55.814;37.460;2023-12-20T15:06:09;4.60;;;2.40;;
27213;SDS011;14723;55.814;37.460;2023-12-20T15:09:15;3.60;;;2.10;;
27213;SDS011;14723;55.814;37.460;2023-12-20T15:12:20;2.65;;;1.77;;
27213;SDS011;14723;55.814;37.460;2023-12-20T15:15:25;3.22;;;2.15;;
27213;SDS011;14723;55.814;37.460;2023-12-20T15:18:33;3.10;;;1.98;;
27213;SDS011;14723;55.814;37.460;2023-12-20T15:21:39;3.20;;;2.03;;
27213;SDS011;14723;55.814;37.460;2023-12-20T15:24:48;3.55;;;2.30;;
27213;SDS011;14723;55.814;37.460;2023-12-20T15:27:56;3.95;;;2.55;;
27213;SDS011;14723;55.814;37.460;2023-12-20T15:31:01;3.05;;;1.73;;
27213;SDS011;14723;55.814;37.460;2023-12-20T15:34:09;3.83;;;2.13;;
27213;SDS011;14723;55.814;37.460;2023-12-20T15:40:20;7.50;;;2.83;;
27213;SDS011;14723;55.814;37.460;2023-12-20T15:43:25;12.98;;;6.00;;
27213;SDS011;14723;55.814;37.460;2023-12-20T15:46:30;7.47;;;2.80;;
27213;SDS011;14723;55.814;37.460;2023-12-20T15:49:38;6.32;;;2.45;;
27213;SDS011;14723;55.814;37.460;2023-12-20T15:52:44;3.85;;;1.77;;
27213;SDS011;14723;55.814;37.460;2023-12-20T15:55:49;5.95;;;2.45;;
27213;SDS011;14723;55.814;37.460;2023-12-20T15:58:54;2.45;;;1.70;;
27213;SDS011;14723;55.814;37.460;2023-12-20T16:02:01;2.75;;;1.85;;
27213;SDS011;14723;55.814;37.460;2023-12-20T16:05:09;2.92;;;1.88;;
27213;SDS011;14723;55.814;37.460;2023-12-20T16:08:15;4.40;;;2.05;;
27213;SDS011;14723;55.814;37.460;2023-12-20T16:11:20;2.20;;;1.63;;
27213;SDS011;14723;55.814;37.460;2023-12-20T16:14:26;3.28;;;1.83;;
27213;SDS011;14723;55.814;37.460;2023-12-20T16:17:31;3.08;;;1.80;;
27213;SDS011;14723;55.814;37.460;2023-12-20T16:20:41;4.68;;;1.70;;
27213;SDS011;14723;55.814;37.460;2023-12-20T16:23:46;2.40;;;1.50;;
27213;SDS011;14723;55.814;37.460;2023-12-20T16:26:51;2.65;;;1.48;;
27213;SDS011;14723;55.814;37.460;2023-12-20T16:29:57;2.53;;;1.50;;
27213;SDS011;14723;55.814;37.460;2023-12-20T16:33:04;3.60;;;1.88;;
27213;SDS011;14723;55.814;37.460;2023-12-20T16:36:12;3.40;;;1.63;;
27213;SDS011;14723;55.814;37.460;2023-12-20T16:39:18;2.42;;;1.23;;
27213;SDS011;14723;55.814;37.460;2023-12-20T16:42:25;2.35;;;1.60;;
27213;SDS011;14723;55.814;37.460;2023-12-20T16:45:30;4.15;;;1.75;;
27213;SDS011;14723;55.814;37.460;2023-12-20T16:48:36;3.80;;;2.05;;
27213;SDS011;14723;55.814;37.460;2023-12-20T16:51:43;3.05;;;1.85;;
27213;SDS011;14723;55.814;37.460;2023-12-20T16:54:49;3.67;;;2.60;;
27213;SDS011;14723;55.814;37.460;2023-12-20T16:57:54;3.95;;;2.08;;
27213;SDS011;14723;55.814;37.460;2023-12-20T17:00:59;4.00;;;1.92;;
27213;SDS011;14723;55.814;37.460;2023-12-20T17:04:05;5.38;;;2.30;;
27213;SDS011;14723;55.814;37.460;2023-12-20T17:07:13;6.03;;;2.00;;
27213;SDS011;14723;55.814;37.460;2023-12-20T17:10:19;4.03;;;2.05;;
27213;SDS011;14723;55.814;37.460;2023-12-20T17:13:24;6.35;;;3.38;;
27213;SDS011;14723;55.814;37.460;2023-12-20T17:16:29;3.63;;;1.98;;
27213;SDS011;14723;55.814;37.460;2023-12-20T17:19:35;5.88;;;2.40;;
27213;SDS011;14723;55.814;37.460;2023-12-20T17:22:43;3.60;;;2.00;;
27213;SDS011;14723;55.814;37.460;2023-12-20T17:25:48;6.80;;;2.22;;
27213;SDS011;14723;55.814;37.460;2023-12-20T17:28:53;3.25;;;2.00;;
27213;SDS011;14723;55.814;37.460;2023-12-20T17:31:58;5.35;;;2.00;;
27213;SDS011;14723;55.814;37.460;2023-12-20T17:35:04;6.03;;;2.10;;
27213;SDS011;14723;55.814;37.460;2023-12-20T17:38:12;5.63;;;1.75;;
27213;SDS011;14723;55.814;37.460;2023-12-20T17:41:17;3.78;;;1.73;;
27213;SDS011;14723;55.814;37.460;2023-12-20T17:44:22;4.00;;;1.73;;
27213;SDS011;14723;55.814;37.460;2023-12-20T17:47:27;3.05;;;1.65;;
27213;SDS011;14723;55.814;37.460;2023-12-20T17:50:33;1.65;;;1.02;;
27213;SDS011;14723;55.814;37.460;2023-12-20T17:53:41;2.97;;;1.25;;
27213;SDS011;14723;55.814;37.460;2023-12-20T17:56:46;3.50;;;1.48;;
27213;SDS011;14723;55.814;37.460;2023-12-20T17:59:52;2.65;;;1.52;;
27213;SDS011;14723;55.814;37.460;2023-12-20T18:02:57;5.43;;;1.40;;
27213;SDS011;14723;55.814;37.460;2023-12-20T18:06:02;3.85;;;1.83;;
27213;SDS011;14723;55.814;37.460;2023-12-20T18:09:10;4.93;;;1.77;;
27213;SDS011;14723;55.814;37.460;2023-12-20T18:12:15;6.13;;;1.75;;
27213;SDS011;14723;55.814;37.460;2023-12-20T18:15:20;3.40;;;1.65;;
27213;SDS011;14723;55.814;37.460;2023-12-20T18:18:26;2.03;;;1.35;;
27213;SDS011;14723;55.814;37.460;2023-12-20T18:21:31;4.40;;;1.50;;
27213;SDS011;14723;55.814;37.460;2023-12-20T18:24:39;11.90;;;4.82;;
27213;SDS011;14723;55.814;37.460;2023-12-20T18:27:44;3.88;;;1.55;;
27213;SDS011;14723;55.814;37.460;2023-12-20T18:30:50;5.57;;;1.35;;
27213;SDS011;14723;55.814;37.460;2023-12-20T18:33:55;3.65;;;1.48;;
27213;SDS011;14723;55.814;37.460;2023-12-20T18:37:01;7.63;;;1.40;;
27213;SDS011;14723;55.814;37.460;2023-12-20T18:40:11;6.07;;;1.50;;